Time;durP1;ratioP1;P1;durP2;ratioP2;P2;SDS_P1;SDS_P2;PMS_P1;PMS_P2;Temp;Humidity;BMP_temperature;BMP_pressure;BME280_temperature;BME280_humidity;BME280_pressure;Samples;Min_cycle;Max_cycle;Signal;HPM_P1;HPM_P2
2022/07/25 00:00:14;;;;;;;1.75;1.33;;;23.20;92.40;;;;;;4130776;28;20046;-83
2022/07/25 00:02:15;;;;;;;2.17;1.80;;;23.20;92.50;;;;;;4113793;28;20106;-83
2022/07/25 00:04:16;;;;;;;1.77;1.63;;;23.10;92.60;;;;;;4113747;28;20051;-83
2022/07/25 00:06:17;;;;;;;2.30;1.63;;;23.10;92.60;;;;;;4146311;28;20050;-83
2022/07/25 00:08:17;;;;;;;5.22;1.80;;;23.10;92.70;;;;;;4113910;28;20415;-83
2022/07/25 00:10:19;;;;;;;2.08;1.50;;;23.10;92.80;;;;;;4113212;28;20058;-84
2022/07/25 00:12:20;;;;;;;2.00;1.67;;;23.10;92.80;;;;;;4131277;28;20100;-83
2022/07/25 00:14:21;;;;;;;2.13;1.80;;;23.00;92.90;;;;;;4113853;28;20054;-83
2022/07/25 00:16:21;;;;;;;2.40;1.70;;;23.00;93.00;;;;;;4113529;28;20058;-83
2022/07/25 00:18:22;;;;;;;3.22;1.90;;;23.00;93.00;;;;;;4113763;28;20051;-83
2022/07/25 00:20:24;;;;;;;2.33;1.83;;;23.00;93.00;;;;;;4114015;28;20130;-83
2022/07/25 00:22:25;;;;;;;2.58;1.63;;;23.00;93.10;;;;;;4113323;28;20043;-83
2022/07/25 00:24:27;;;;;;;2.22;1.85;;;23.00;93.10;;;;;;4145804;28;20572;-83
2022/07/25 00:26:27;;;;;;;3.95;1.77;;;23.00;93.10;;;;;;4131197;28;20162;-83
2022/07/25 00:28:28;;;;;;;3.15;1.92;;;23.00;93.20;;;;;;4113862;28;20087;-83
2022/07/25 00:30:29;;;;;;;4.25;1.77;;;23.00;93.20;;;;;;4113969;28;20141;-83
2022/07/25 00:32:29;;;;;;;2.42;2.03;;;23.00;93.20;;;;;;4131030;28;20049;-83
2022/07/25 00:34:30;;;;;;;3.55;1.50;;;23.00;93.20;;;;;;4130671;28;20101;-83
2022/07/25 00:36:31;;;;;;;2.33;1.70;;;23.00;93.30;;;;;;4114733;28;20086;-83
2022/07/25 00:38:31;;;;;;;2.50;1.85;;;23.00;93.30;;;;;;4116546;28;20090;-84
2022/07/25 00:40:34;;;;;;;3.33;1.90;;;23.00;93.40;;;;;;4116672;28;20541;-83
2022/07/25 00:42:35;;;;;;;3.67;2.03;;;22.90;93.50;;;;;;4100443;29;20106;-84
2022/07/25 00:44:36;;;;;;;2.85;1.70;;;22.90;93.50;;;;;;4149031;28;20481;-83
2022/07/25 00:46:38;;;;;;;5.18;1.92;;;22.90;93.60;;;;;;4133618;28;20046;-83
2022/07/25 00:48:39;;;;;;;2.50;2.10;;;22.90;93.70;;;;;;4149337;28;20081;-84
2022/07/25 00:50:39;;;;;;;2.78;1.92;;;22.80;93.80;;;;;;4116626;28;20187;-84
2022/07/25 00:52:40;;;;;;;2.30;1.80;;;22.90;93.80;;;;;;4116626;28;20050;-84
2022/07/25 00:54:41;;;;;;;7.10;2.67;;;22.80;93.90;;;;;;4116722;28;20466;-84
2022/07/25 00:56:42;;;;;;;3.22;2.10;;;22.80;94.00;;;;;;4116338;28;20169;-83
2022/07/25 00:58:44;;;;;;;2.85;1.77;;;22.80;94.00;;;;;;4133854;28;20085;-84
2022/07/25 01:00:45;;;;;;;4.00;1.98;;;22.70;94.10;;;;;;4116426;28;20055;-84
2022/07/25 01:02:46;;;;;;;2.60;2.28;;;22.70;94.20;;;;;;4133902;28;20046;-84
2022/07/25 01:04:47;;;;;;;3.78;2.20;;;22.70;94.30;;;;;;4133286;28;20046;-84
2022/07/25 01:06:48;;;;;;;3.20;2.25;;;22.60;94.30;;;;;;4133557;28;20039;-83
2022/07/25 01:08:49;;;;;;;2.80;2.15;;;22.60;94.40;;;;;;4133126;28;20054;-84
2022/07/25 01:10:51;;;;;;;4.15;2.53;;;22.60;94.40;;;;;;4116504;28;20042;-83
2022/07/25 01:12:54;;;;;;;5.00;2.45;;;22.60;94.50;;;;;;4149107;28;20064;-84
2022/07/25 01:14:56;;;;;;;5.18;2.33;;;22.60;94.60;;;;;;4148383;28;20522;-84
2022/07/25 01:16:56;;;;;;;4.70;2.35;;;22.50;94.60;;;;;;4115403;28;20438;-83
2022/07/25 01:18:57;;;;;;;5.43;3.00;;;22.50;94.70;;;;;;4100121;29;20054;-83
2022/07/25 01:20:58;;;;;;;3.33;2.30;;;22.50;94.70;;;;;;4100329;29;20083;-83
2022/07/25 01:23:00;;;;;;;3.00;2.20;;;22.40;94.80;;;;;;4148308;28;20050;-83
2022/07/25 01:25:00;;;;;;;4.13;2.20;;;22.40;94.90;;;;;;4148016;28;20046;-83
2022/07/25 01:27:02;;;;;;;4.22;2.42;;;22.40;94.90;;;;;;4115745;28;20051;-83
2022/07/25 01:29:04;;;;;;;2.53;2.33;;;22.40;95.00;;;;;;4147479;28;20045;-82
2022/07/25 01:31:05;;;;;;;2.78;2.33;;;22.40;95.10;;;;;;4132877;28;20112;-82
2022/07/25 01:33:05;;;;;;;4.68;2.15;;;22.30;95.10;;;;;;4115205;28;20046;-82
2022/07/25 01:35:08;;;;;;;4.25;2.65;;;22.30;95.20;;;;;;4115697;28;20046;-82
2022/07/25 01:37:08;;;;;;;6.50;2.78;;;22.30;95.30;;;;;;4148299;28;20099;-83
2022/07/25 01:39:09;;;;;;;5.20;2.80;;;22.20;95.30;;;;;;4132978;28;20042;-83
2022/07/25 01:41:10;;;;;;;5.22;2.70;;;22.20;95.40;;;;;;4133190;28;20117;-83
2022/07/25 01:43:10;;;;;;;4.50;2.75;;;22.20;95.50;;;;;;4132437;28;20046;-83
2022/07/25 01:45:12;;;;;;;4.47;2.45;;;22.10;95.50;;;;;;4099623;29;20051;-83
2022/07/25 01:47:13;;;;;;;5.32;2.78;;;22.10;95.60;;;;;;4115746;28;20050;-83
2022/07/25 01:49:14;;;;;;;3.97;2.72;;;22.00;95.70;;;;;;4099896;29;20051;-83
2022/07/25 01:51:15;;;;;;;4.30;3.00;;;22.00;95.80;;;;;;4115690;28;20047;-83
2022/07/25 01:53:16;;;;;;;5.65;3.60;;;22.00;95.80;;;;;;4115337;28;20263;-83
2022/07/25 01:55:18;;;;;;;6.40;3.50;;;22.00;95.90;;;;;;4115603;28;20046;-83
2022/07/25 01:57:18;;;;;;;11.40;4.70;;;21.90;95.90;;;;;;4132765;28;20045;-83
2022/07/25 01:59:19;;;;;;;4.72;2.97;;;21.90;95.90;;;;;;4115513;28;20161;-83
2022/07/25 02:01:20;;;;;;;5.95;3.58;;;21.90;95.90;;;;;;4115649;28;20554;-83
2022/07/25 02:03:30;;;;;;;7.25;3.72;;;21.90;95.90;;;;;;4115235;28;20047;-83
2022/07/25 02:05:30;;;;;;;7.10;3.85;;;21.90;95.90;;;;;;4132681;28;20057;-83
2022/07/25 02:07:31;;;;;;;4.10;3.28;;;21.90;96.00;;;;;;4114872;28;20219;-83
2022/07/25 02:09:32;;;;;;;7.35;4.18;;;21.80;96.00;;;;;;4115307;28;20046;-83
2022/07/25 02:11:33;;;;;;;6.10;3.63;;;21.80;96.00;;;;;;4115300;28;20054;-83
2022/07/25 02:13:34;;;;;;;5.15;3.83;;;21.80;96.30;;;;;;4099264;29;20058;-83
2022/07/25 02:15:35;;;;;;;5.38;3.88;;;21.80;96.10;;;;;;4132665;28;20042;-83
2022/07/25 02:17:36;;;;;;;7.35;3.75;;;21.80;96.20;;;;;;4132164;28;20050;-83
2022/07/25 02:19:36;;;;;;;6.30;3.70;;;21.80;96.30;;;;;;4132633;28;20046;-83
2022/07/25 02:21:37;;;;;;;9.43;3.80;;;21.70;96.40;;;;;;4115344;28;20046;-83
2022/07/25 02:23:38;;;;;;;4.88;3.58;;;21.70;96.50;;;;;;4114860;28;20050;-83
2022/07/25 02:25:39;;;;;;;5.97;3.60;;;21.70;96.50;;;;;;4147201;28;20442;-83
2022/07/25 02:27:39;;;;;;;6.45;3.47;;;21.60;96.50;;;;;;4098772;29;20058;-83
2022/07/25 02:29:40;;;;;;;5.68;3.50;;;21.70;96.50;;;;;;4114989;28;20397;-82
2022/07/25 02:31:41;;;;;;;4.07;3.30;;;21.70;96.40;;;;;;4146841;28;20053;-82
2022/07/25 02:33:42;;;;;;;4.65;3.25;;;21.70;96.40;;;;;;4115243;28;20058;-83
2022/07/25 02:35:43;;;;;;;6.10;3.28;;;21.70;96.40;;;;;;4147204;28;20049;-83
2022/07/25 02:37:44;;;;;;;6.13;3.55;;;21.70;96.40;;;;;;4114891;28;20494;-83
2022/07/25 02:39:44;;;;;;;6.38;3.38;;;21.70;96.40;;;;;;4114291;28;20055;-83
2022/07/25 02:41:45;;;;;;;6.35;3.58;;;21.70;96.40;;;;;;4114818;28;20051;-83
2022/07/25 02:43:46;;;;;;;21.30;4.22;;;21.70;96.30;;;;;;4131607;28;20487;-83
2022/07/25 02:45:46;;;;;;;4.35;3.70;;;21.70;96.20;;;;;;4114699;28;20054;-81
2022/07/25 02:47:47;;;;;;;4.65;3.50;;;21.70;96.10;;;;;;4114865;28;20503;-81
2022/07/25 02:49:48;;;;;;;5.57;3.35;;;21.80;96.00;;;;;;4130872;28;20063;-82
2022/07/25 02:51:48;;;;;;;5.47;3.75;;;21.80;96.10;;;;;;4114865;28;20519;-83
2022/07/25 02:53:49;;;;;;;6.25;3.50;;;21.80;95.80;;;;;;4114573;28;20051;-83
2022/07/25 02:55:51;;;;;;;6.93;3.83;;;21.80;95.70;;;;;;4114554;28;20102;-83
2022/07/25 02:57:52;;;;;;;6.80;3.75;;;21.80;95.60;;;;;;4114218;28;20525;-83
2022/07/25 02:59:53;;;;;;;5.57;3.50;;;21.80;95.50;;;;;;4114040;28;20138;-83
2022/07/25 03:01:54;;;;;;;7.55;4.10;;;21.90;95.40;;;;;;4131762;28;20046;-83
2022/07/25 03:03:55;;;;;;;7.00;4.00;;;21.90;95.30;;;;;;4098563;29;20055;-83
2022/07/25 03:05:55;;;;;;;5.20;3.35;;;21.90;95.40;;;;;;4146840;28;20042;-82
2022/07/25 03:07:56;;;;;;;6.32;3.58;;;21.90;95.40;;;;;;4114199;28;20050;-83
2022/07/25 03:09:57;;;;;;;4.85;3.38;;;21.80;95.40;;;;;;4146658;28;20050;-82
2022/07/25 03:11:58;;;;;;;6.47;3.42;;;21.80;95.50;;;;;;4114593;28;20555;-83
2022/07/25 03:13:58;;;;;;;4.88;3.90;;;21.80;95.50;;;;;;4131611;28;20051;-82
2022/07/25 03:15:59;;;;;;;7.28;3.22;;;21.80;95.40;;;;;;4131560;28;20239;-83
2022/07/25 03:18:00;;;;;;;6.38;3.35;;;21.80;95.40;;;;;;4114354;28;20039;-82
2022/07/25 03:20:01;;;;;;;7.40;3.47;;;21.80;95.50;;;;;;4146534;28;20406;-83
2022/07/25 03:22:01;;;;;;;4.47;3.17;;;21.80;95.50;;;;;;4114078;28;20632;-82
2022/07/25 03:24:02;;;;;;;3.92;3.28;;;21.80;95.50;;;;;;4113616;28;20046;-82
2022/07/25 03:26:04;;;;;;;4.35;3.00;;;21.80;95.60;;;;;;4114254;28;20519;-82
2022/07/25 03:28:04;;;;;;;4.18;3.35;;;21.70;95.60;;;;;;4131610;28;20125;-82
2022/07/25 03:30:06;;;;;;;4.60;3.17;;;21.70;95.60;;;;;;4114167;28;20057;-82
2022/07/25 03:32:07;;;;;;;5.75;3.47;;;21.70;95.70;;;;;;4146423;28;20050;-82
2022/07/25 03:34:08;;;;;;;4.97;3.50;;;21.70;95.90;;;;;;4113877;28;20055;-83
2022/07/25 03:36:10;;;;;;;8.18;3.60;;;21.60;95.90;;;;;;4114164;28;20475;-82
2022/07/25 03:38:11;;;;;;;5.15;3.40;;;21.60;96.00;;;;;;4146012;28;20054;-83
2022/07/25 03:40:13;;;;;;;5.60;3.83;;;21.60;96.10;;;;;;4131293;28;20101;-83
2022/07/25 03:42:14;;;;;;;4.43;3.45;;;21.60;96.20;;;;;;4114273;28;20534;-83
2022/07/25 03:44:14;;;;;;;4.13;3.22;;;21.60;96.30;;;;;;4097847;29;20039;-83
2022/07/25 03:46:15;;;;;;;4.78;3.72;;;21.60;96.40;;;;;;4146255;28;20056;-83
2022/07/25 03:48:16;;;;;;;6.22;3.95;;;21.50;96.50;;;;;;4131095;28;20042;-83
2022/07/25 03:50:17;;;;;;;6.32;4.28;;;21.50;96.50;;;;;;4131428;28;20467;-83
2022/07/25 03:52:18;;;;;;;6.55;3.67;;;21.50;96.40;;;;;;4130942;28;20038;-83
2022/07/25 03:54:20;;;;;;;5.43;4.30;;;21.50;96.40;;;;;;4131320;28;20046;-83
2022/07/25 03:56:20;;;;;;;6.30;3.65;;;21.60;96.50;;;;;;4113867;28;20106;-83
2022/07/25 03:58:21;;;;;;;5.55;3.75;;;21.50;96.60;;;;;;4131215;28;20411;-83
2022/07/25 04:00:22;;;;;;;7.30;4.60;;;21.50;96.70;;;;;;4131319;28;20404;-83
2022/07/25 04:02:23;;;;;;;5.93;4.10;;;21.50;96.70;;;;;;4113330;28;20151;-83
2022/07/25 04:04:24;;;;;;;9.07;4.30;;;21.50;96.70;;;;;;4131491;28;20046;-82
2022/07/25 04:06:25;;;;;;;5.28;4.07;;;21.50;96.60;;;;;;4097958;29;20079;-82
2022/07/25 04:08:26;;;;;;;5.65;3.55;;;21.50;96.60;;;;;;4146343;28;20085;-82
2022/07/25 04:10:26;;;;;;;6.90;3.97;;;21.50;96.60;;;;;;4114082;28;20130;-83
2022/07/25 04:12:27;;;;;;;6.03;3.83;;;21.50;96.60;;;;;;4133985;28;20065;-82
2022/07/25 04:14:28;;;;;;;10.00;4.82;;;21.50;96.50;;;;;;4116894;28;20051;-83
2022/07/25 04:16:29;;;;;;;5.95;4.15;;;21.50;96.60;;;;;;4134021;28;20049;-82
2022/07/25 04:18:29;;;;;;;9.23;4.18;;;21.50;96.60;;;;;;4121010;28;20086;-82
2022/07/25 04:20:30;;;;;;;6.22;4.20;;;21.50;96.60;;;;;;4140057;28;20042;-82
2022/07/25 04:22:31;;;;;;;7.65;4.40;;;21.50;96.50;;;;;;4134589;28;20388;-82
2022/07/25 04:24:32;;;;;;;6.57;4.40;;;21.50;96.40;;;;;;4150541;28;20042;-82
2022/07/25 04:26:32;;;;;;;11.05;4.30;;;21.50;96.30;;;;;;4102728;28;20434;-82
2022/07/25 04:28:33;;;;;;;6.65;4.25;;;21.50;96.30;;;;;;4137796;28;20050;-83
2022/07/25 04:30:34;;;;;;;8.90;5.10;;;21.60;96.30;;;;;;4140764;28;20103;-82
2022/07/25 04:32:35;;;;;;;10.43;5.22;;;21.50;96.20;;;;;;4142205;28;20060;-83
2022/07/25 04:34:35;;;;;;;9.35;4.85;;;21.60;96.10;;;;;;4124132;28;20047;-81
2022/07/25 04:36:36;;;;;;;7.10;4.88;;;21.60;96.00;;;;;;4123704;28;20057;-82
2022/07/25 04:38:37;;;;;;;10.70;5.85;;;21.60;96.00;;;;;;4154226;28;20046;-81
2022/07/25 04:40:37;;;;;;;8.25;4.95;;;21.60;96.00;;;;;;4139536;28;20077;-82
2022/07/25 04:42:38;;;;;;;8.68;4.95;;;21.60;96.00;;;;;;4123297;28;20081;-82
2022/07/25 04:44:40;;;;;;;7.70;4.85;;;21.60;96.00;;;;;;4152471;28;20042;-82
2022/07/25 04:46:40;;;;;;;9.32;5.40;;;21.60;95.90;;;;;;4137686;28;20049;-81
2022/07/25 04:48:41;;;;;;;8.60;5.45;;;21.60;95.80;;;;;;4122057;28;20443;-82
2022/07/25 04:50:42;;;;;;;10.00;5.50;;;21.70;95.80;;;;;;4119840;28;20058;-83
2022/07/25 04:52:43;;;;;;;9.30;5.55;;;21.70;95.70;;;;;;4119613;28;20054;-82
2022/07/25 04:54:43;;;;;;;9.57;5.10;;;21.70;95.60;;;;;;4117206;28;20047;-83
2022/07/25 04:56:45;;;;;;;7.10;5.05;;;21.70;95.50;;;;;;4116518;28;20055;-83
2022/07/25 04:58:46;;;;;;;10.38;5.65;;;21.70;95.50;;;;;;4133998;28;20529;-83
2022/07/25 05:00:47;;;;;;;8.55;5.47;;;21.80;95.40;;;;;;4100516;29;20055;-83
2022/07/25 05:02:50;;;;;;;6.88;5.22;;;21.70;95.30;;;;;;4133474;28;20517;-83
2022/07/25 05:04:51;;;;;;;8.45;5.85;;;21.70;95.30;;;;;;4115907;28;20495;-83
2022/07/25 05:06:52;;;;;;;9.15;5.68;;;21.80;95.30;;;;;;4148708;28;20537;-83
2022/07/25 05:08:52;;;;;;;9.50;5.25;;;21.80;95.30;;;;;;4116819;28;20055;-83
2022/07/25 05:10:53;;;;;;;11.25;5.30;;;21.80;95.20;;;;;;4116188;28;20126;-83
2022/07/25 05:12:55;;;;;;;8.40;5.32;;;21.80;95.10;;;;;;4116092;28;20543;-83
2022/07/25 05:14:55;;;;;;;7.78;5.28;;;21.80;95.10;;;;;;4115634;28;20102;-83
2022/07/25 05:16:56;;;;;;;10.15;5.68;;;21.90;95.00;;;;;;4116257;28;20055;-83
2022/07/25 05:18:57;;;;;;;13.27;5.82;;;21.90;94.90;;;;;;4148573;28;20057;-83
2022/07/25 05:20:58;;;;;;;6.95;5.03;;;21.90;94.80;;;;;;4133548;28;20042;-82
2022/07/25 05:22:59;;;;;;;9.70;5.85;;;22.00;94.80;;;;;;4133069;28;20046;-83
2022/07/25 05:25:01;;;;;;;8.65;5.18;;;22.00;94.70;;;;;;4116272;28;20480;-82
2022/07/25 05:27:02;;;;;;;10.48;5.65;;;22.00;94.60;;;;;;4148549;28;20054;-83
2022/07/25 05:29:03;;;;;;;9.15;5.68;;;22.00;94.40;;;;;;4116306;28;20086;-83
2022/07/25 05:31:04;;;;;;;9.27;5.40;;;22.10;94.30;;;;;;4116246;28;20519;-83
2022/07/25 05:33:05;;;;;;;9.50;5.30;;;22.20;94.20;;;;;;4116843;28;20109;-83
2022/07/25 05:35:07;;;;;;;7.63;5.75;;;22.10;94.00;;;;;;4116226;28;20177;-83
2022/07/25 05:37:08;;;;;;;9.07;5.95;;;22.20;93.90;;;;;;4102290;29;20083;-83
2022/07/25 05:39:08;;;;;;;9.98;5.97;;;22.20;93.80;;;;;;4149284;28;20050;-83
2022/07/25 05:41:09;;;;;;;8.73;5.93;;;22.30;93.70;;;;;;4132760;28;20407;-83
2022/07/25 05:43:10;;;;;;;12.25;6.30;;;22.30;93.70;;;;;;4118879;28;20086;-83
2022/07/25 05:45:10;;;;;;;9.05;6.15;;;22.30;93.60;;;;;;4147925;28;20046;-83
2022/07/25 05:47:12;;;;;;;16.33;6.70;;;22.30;93.60;;;;;;4132689;28;20073;-83
2022/07/25 05:49:12;;;;;;;8.35;5.95;;;22.30;93.50;;;;;;4147900;28;20060;-83
2022/07/25 05:51:13;;;;;;;9.88;6.40;;;22.40;93.50;;;;;;4132843;28;20555;-83
2022/07/25 05:53:14;;;;;;;10.73;6.60;;;22.40;93.50;;;;;;4132361;28;20078;-83
2022/07/25 05:55:16;;;;;;;13.30;7.03;;;22.40;93.40;;;;;;4115516;28;20054;-83
2022/07/25 05:57:17;;;;;;;10.20;6.85;;;22.40;93.40;;;;;;4115304;28;20101;-82
2022/07/25 05:59:18;;;;;;;10.50;7.07;;;22.40;93.30;;;;;;4115724;28;20050;-82
2022/07/25 06:01:19;;;;;;;12.32;7.40;;;22.50;93.30;;;;;;4115206;28;20058;-83
2022/07/25 06:03:20;;;;;;;11.55;6.60;;;22.50;93.20;;;;;;4132533;28;20623;-82
2022/07/25 06:05:21;;;;;;;10.43;6.72;;;22.50;93.10;;;;;;4099596;29;20051;-82
2022/07/25 06:07:21;;;;;;;9.82;7.22;;;22.60;93.00;;;;;;4115505;28;20475;-83
2022/07/25 06:09:22;;;;;;;11.50;7.40;;;22.60;92.90;;;;;;4133891;28;20514;-82
2022/07/25 06:11:25;;;;;;;11.25;6.78;;;22.60;92.90;;;;;;4116560;28;20118;-83
2022/07/25 06:13:26;;;;;;;10.60;7.20;;;22.60;92.80;;;;;;4114770;28;20050;-83
2022/07/25 06:15:27;;;;;;;12.35;7.28;;;22.60;92.70;;;;;;4147860;28;20523;-83
2022/07/25 06:17:27;;;;;;;12.18;7.78;;;22.70;92.70;;;;;;4132553;28;20124;-83
2022/07/25 06:19:29;;;;;;;9.60;6.78;;;22.70;92.70;;;;;;4133379;28;20042;-83
2022/07/25 06:21:29;;;;;;;10.93;7.50;;;22.70;92.70;;;;;;4146576;28;20073;-83
2022/07/25 06:23:30;;;;;;;10.77;7.53;;;22.70;92.60;;;;;;4115190;28;20439;-82
2022/07/25 06:25:31;;;;;;;9.93;6.45;;;22.70;92.50;;;;;;4132520;28;20039;-82
2022/07/25 06:27:31;;;;;;;10.10;7.38;;;22.80;92.60;;;;;;4117045;28;20053;-83
2022/07/25 06:29:32;;;;;;;11.10;6.82;;;22.80;92.60;;;;;;4114494;28;20048;-83
2022/07/25 06:31:33;;;;;;;10.85;6.60;;;22.90;92.60;;;;;;4099837;29;20495;-83
2022/07/25 06:33:33;;;;;;;15.52;7.65;;;22.90;92.50;;;;;;4132513;28;20123;-82
2022/07/25 06:35:34;;;;;;;10.15;6.63;;;23.00;92.50;;;;;;4114678;28;20111;-82
2022/07/25 06:37:38;;;;;;;9.63;6.45;;;23.00;92.40;;;;;;4132975;28;20141;-83
2022/07/25 06:39:38;;;;;;;10.75;7.28;;;23.10;92.40;;;;;;4133114;28;20073;-83
2022/07/25 06:41:39;;;;;;;10.88;6.57;;;23.20;92.30;;;;;;4132386;28;20124;-83
2022/07/25 06:43:40;;;;;;;13.65;6.57;;;23.30;92.20;;;;;;4114933;28;20111;-83
2022/07/25 06:45:45;;;;;;;10.93;6.82;;;23.40;92.10;;;;;;4132115;28;20046;-83
2022/07/25 06:47:47;;;;;;;15.35;6.60;;;23.60;91.90;;;;;;4114363;28;20074;-83
2022/07/25 06:49:48;;;;;;;10.77;6.15;;;23.80;91.60;;;;;;4115106;28;20086;-83
2022/07/25 06:51:49;;;;;;;9.25;6.97;;;23.90;91.40;;;;;;4114801;28;20043;-82
2022/07/25 06:53:50;;;;;;;10.00;6.18;;;24.00;91.30;;;;;;4115085;28;20129;-83
2022/07/25 06:55:51;;;;;;;10.50;5.97;;;24.00;91.10;;;;;;4132067;28;20050;-82
2022/07/25 06:57:51;;;;;;;9.52;6.38;;;24.10;91.00;;;;;;4114283;28;20039;-82
2022/07/25 06:59:52;;;;;;;10.52;5.80;;;24.20;90.90;;;;;;4114537;28;20053;-82
2022/07/25 07:01:53;;;;;;;11.75;7.03;;;24.10;90.80;;;;;;4131736;28;20050;-83
2022/07/25 07:03:53;;;;;;;9.23;6.43;;;24.10;90.80;;;;;;4114709;28;20058;-83
2022/07/25 07:05:54;;;;;;;10.55;6.30;;;24.10;90.80;;;;;;4114346;28;20149;-83
2022/07/25 07:07:55;;;;;;;8.88;5.72;;;24.10;90.90;;;;;;4114395;28;20050;-83
2022/07/25 07:09:56;;;;;;;8.45;5.88;;;24.00;90.90;;;;;;4114548;28;20431;-83
2022/07/25 07:11:56;;;;;;;11.57;6.63;;;24.00;91.00;;;;;;4114596;28;20098;-83
2022/07/25 07:13:57;;;;;;;9.77;5.70;;;23.90;91.00;;;;;;4113584;28;20054;-83
2022/07/25 07:15:58;;;;;;;10.55;6.35;;;23.90;91.10;;;;;;4146507;28;20049;-83
2022/07/25 07:17:58;;;;;;;9.68;6.43;;;23.90;91.20;;;;;;4114506;28;20544;-83
2022/07/25 07:19:59;;;;;;;13.43;6.75;;;23.90;91.30;;;;;;4114217;28;20602;-84
2022/07/25 07:22:00;;;;;;;12.77;6.63;;;23.90;91.30;;;;;;4146420;28;20530;-83
2022/07/25 07:24:01;;;;;;;9.88;6.30;;;23.90;91.40;;;;;;4131310;28;20407;-83
2022/07/25 07:26:02;;;;;;;11.70;7.03;;;23.90;91.40;;;;;;4113894;28;20047;-83
2022/07/25 07:28:03;;;;;;;11.40;7.30;;;23.90;91.30;;;;;;4131287;28;20121;-83
2022/07/25 07:30:05;;;;;;;11.23;6.03;;;24.00;91.40;;;;;;4114200;28;20491;-83
2022/07/25 07:32:05;;;;;;;13.05;7.13;;;24.00;91.30;;;;;;4146353;28;20431;-83
2022/07/25 07:34:06;;;;;;;11.10;6.18;;;24.00;91.20;;;;;;4131323;28;20049;-83
2022/07/25 07:36:07;;;;;;;12.40;6.68;;;24.00;91.20;;;;;;4131440;28;20246;-84
2022/07/25 07:38:08;;;;;;;12.40;6.10;;;24.10;91.20;;;;;;4131144;28;20083;-83
2022/07/25 07:40:09;;;;;;;9.57;6.63;;;24.00;91.10;;;;;;4114287;28;20130;-84
2022/07/25 07:42:10;;;;;;;9.20;5.97;;;24.20;91.10;;;;;;4131257;28;20463;-84
2022/07/25 07:44:10;;;;;;;14.15;6.05;;;24.30;90.90;;;;;;4130915;28;20042;-84
2022/07/25 07:46:11;;;;;;;8.70;5.95;;;24.30;90.80;;;;;;4130922;28;20137;-83
2022/07/25 07:48:12;;;;;;;9.10;5.75;;;24.40;90.80;;;;;;4114093;28;20129;-83
2022/07/25 07:50:15;;;;;;;7.65;5.40;;;24.40;90.70;;;;;;4131162;28;20395;-83
2022/07/25 07:52:15;;;;;;;11.60;5.30;;;24.40;90.60;;;;;;4113113;28;20475;-83
2022/07/25 07:56:35;;;;;;;7.35;4.47;;;24.50;90.50;;;;;;4131450;28;20499;-83
2022/07/25 07:58:36;;;;;;;9.43;5.20;;;24.60;90.40;;;;;;4130922;28;20054;-83
2022/07/25 08:00:40;;;;;;;9.70;4.88;;;24.60;90.30;;;;;;4113517;28;20061;-83
2022/07/25 08:02:47;;;;;;;8.38;5.07;;;24.60;90.40;;;;;;4146371;28;20052;-83
2022/07/25 08:04:48;;;;;;;7.40;4.50;;;24.70;90.30;;;;;;4113728;28;20046;-83
2022/07/25 08:06:48;;;;;;;5.75;4.07;;;24.80;90.00;;;;;;4131177;28;20043;-83
2022/07/25 08:08:49;;;;;;;8.45;4.35;;;24.70;89.80;;;;;;4130995;28;20081;-83
2022/07/25 08:10:50;;;;;;;8.52;4.57;;;24.70;89.50;;;;;;4113845;28;20119;-83
2022/07/25 08:12:51;;;;;;;8.85;4.53;;;24.60;89.40;;;;;;4113525;28;20055;-83
2022/07/25 08:14:52;;;;;;;7.60;4.35;;;24.70;89.60;;;;;;4131417;28;20469;-82
2022/07/25 08:16:55;;;;;;;12.70;4.60;;;24.80;89.50;;;;;;4113911;28;20058;-83
2022/07/25 08:18:56;;;;;;;7.20;4.05;;;24.70;89.10;;;;;;4131064;28;20050;-83
2022/07/25 08:20:57;;;;;;;6.65;3.72;;;24.70;88.70;;;;;;4130606;28;20173;-82
2022/07/25 08:22:57;;;;;;;7.78;3.58;;;24.70;88.50;;;;;;4113588;28;20050;-83
2022/07/25 08:24:58;;;;;;;8.38;4.15;;;24.80;88.30;;;;;;4113607;28;20047;-83
2022/07/25 08:27:00;;;;;;;7.18;4.07;;;24.80;87.90;;;;;;4145364;28;20577;-83
2022/07/25 08:29:01;;;;;;;6.32;4.38;;;25.00;87.60;;;;;;4113224;28;20453;-83
2022/07/25 08:31:02;;;;;;;5.63;3.25;;;25.00;87.80;;;;;;4113729;28;20093;-83
2022/07/25 08:33:05;;;;;;;6.43;3.95;;;25.10;87.00;;;;;;4113696;28;20567;-83
2022/07/25 08:35:06;;;;;;;6.15;3.47;;;25.10;86.60;;;;;;4097732;29;20088;-83
2022/07/25 08:37:07;;;;;;;8.38;4.15;;;25.10;86.50;;;;;;4145918;28;20118;-83
2022/07/25 08:39:07;;;;;;;7.95;3.40;;;25.10;86.40;;;;;;4130769;28;20130;-83
2022/07/25 08:41:08;;;;;;;6.13;3.35;;;25.10;86.60;;;;;;4130788;28;20572;-83
2022/07/25 08:43:11;;;;;;;8.18;3.33;;;25.00;86.80;;;;;;4130255;28;20039;-82
2022/07/25 08:45:19;;;;;;;6.45;3.03;;;25.00;86.90;;;;;;4131007;28;20407;-83
2022/07/25 08:47:20;;;;;;;6.32;3.35;;;24.80;87.00;;;;;;4130854;28;20046;-83
2022/07/25 08:49:22;;;;;;;5.10;3.00;;;24.70;87.10;;;;;;4113355;28;20404;-83
2022/07/25 08:51:24;;;;;;;6.38;3.50;;;24.60;87.20;;;;;;4113746;28;20109;-83
2022/07/25 08:53:28;;;;;;;6.18;2.78;;;24.50;87.40;;;;;;4113179;28;20069;-82
2022/07/25 08:55:28;;;;;;;6.72;2.97;;;24.50;87.70;;;;;;4113655;28;20051;-82
2022/07/25 08:57:29;;;;;;;5.47;2.25;;;24.40;87.60;;;;;;4114851;28;20550;-82
2022/07/25 08:59:31;;;;;;;4.40;2.78;;;24.40;87.70;;;;;;4116532;28;20121;-82
2022/07/25 09:01:32;;;;;;;4.90;2.50;;;24.30;87.70;;;;;;4100678;28;20051;-83
2022/07/25 09:03:32;;;;;;;5.55;2.38;;;24.40;87.90;;;;;;4133551;28;20056;-82
2022/07/25 09:05:34;;;;;;;3.90;2.35;;;24.30;87.80;;;;;;4116571;28;20134;-83
2022/07/25 09:07:38;;;;;;;4.97;2.53;;;24.40;87.70;;;;;;4116515;28;20085;-82
2022/07/25 09:09:38;;;;;;;4.53;2.40;;;24.40;87.60;;;;;;4135858;28;20053;-83
2022/07/25 09:11:39;;;;;;;3.75;2.35;;;24.40;87.80;;;;;;4119834;28;20055;-83
2022/07/25 09:13:40;;;;;;;3.17;1.80;;;24.40;87.60;;;;;;4135537;28;20399;-83
2022/07/25 09:15:45;;;;;;;4.22;1.70;;;24.50;88.00;;;;;;4133493;28;20077;-84
2022/07/25 09:17:50;;;;;;;2.28;1.40;;;24.50;86.90;;;;;;4120888;28;20062;-82
2022/07/25 09:19:55;;;;;;;1.85;1.38;;;24.60;86.70;;;;;;4148688;28;20042;-82
2022/07/25 09:22:05;;;;;;;2.95;1.10;;;24.80;86.40;;;;;;4133489;28;20058;-82
2022/07/25 09:24:15;;;;;;;3.22;1.30;;;25.10;85.80;;;;;;4133145;28;20050;-83
2022/07/25 09:26:16;;;;;;;4.07;1.77;;;25.20;85.30;;;;;;4132705;28;20047;-83
2022/07/25 09:28:18;;;;;;;18.58;2.05;;;25.30;85.60;;;;;;4133086;28;20046;-83
2022/07/25 09:30:19;;;;;;;4.85;2.25;;;25.30;85.10;;;;;;4132844;28;20053;-83
2022/07/25 09:32:21;;;;;;;2.60;1.45;;;25.20;84.50;;;;;;4132786;28;20510;-83
2022/07/25 09:34:51;;;;;;;4.22;1.75;;;25.30;84.80;;;;;;4099495;28;20547;-83
2022/07/25 09:36:54;;;;;;;2.25;1.48;;;25.30;84.20;;;;;;4111754;28;20208;-83
2022/07/25 09:38:58;;;;;;;5.72;1.83;;;25.30;84.20;;;;;;4132850;28;20080;-83
2022/07/25 09:41:01;;;;;;;2.88;1.42;;;25.30;84.00;;;;;;4133397;28;20046;-83
2022/07/25 09:43:02;;;;;;;3.25;1.73;;;25.30;84.10;;;;;;4115647;28;20038;-83
2022/07/25 09:45:10;;;;;;;2.13;1.35;;;25.20;83.50;;;;;;4132630;28;20042;-83
2022/07/25 09:47:14;;;;;;;3.50;1.30;;;25.10;83.30;;;;;;4147869;28;20530;-84
2022/07/25 09:49:16;;;;;;;2.92;1.30;;;25.10;82.50;;;;;;4099670;29;20412;-84
2022/07/25 09:51:18;;;;;;;4.57;1.42;;;25.10;82.30;;;;;;4115611;28;20039;-83
2022/07/25 09:53:19;;;;;;;2.45;1.27;;;25.10;81.60;;;;;;4132878;28;20046;-83
2022/07/25 09:55:21;;;;;;;5.55;1.35;;;25.20;80.50;;;;;;4132832;28;20569;-84
2022/07/25 09:57:24;;;;;;;2.13;1.10;;;25.20;78.40;;;;;;4099365;29;20043;-83
2022/07/25 09:59:25;;;;;;;2.20;1.20;;;25.10;78.60;;;;;;4133063;28;20406;-83
2022/07/25 10:01:33;;;;;;;2.05;0.98;;;25.10;78.70;;;;;;4116214;28;20075;-83
2022/07/25 10:04:08;;;;;;;2.65;1.10;;;25.10;78.00;;;;;;4148005;28;20049;-83
2022/07/25 10:06:34;;;;;;;1.73;1.20;;;25.20;77.20;;;;;;4141997;28;20061;-83
2022/07/25 10:08:36;;;;;;;2.70;0.90;;;25.30;77.10;;;;;;4132564;28;20053;-83
2022/07/25 10:10:40;;;;;;;1.90;1.02;;;25.30;77.40;;;;;;4115528;28;20163;-83
2022/07/25 10:12:41;;;;;;;7.68;1.52;;;25.40;77.00;;;;;;4147790;28;20112;-83
2022/07/25 10:14:41;;;;;;;2.22;1.00;;;25.40;77.40;;;;;;4115194;28;20050;-83
2022/07/25 10:16:46;;;;;;;1.45;0.90;;;25.50;76.90;;;;;;4146850;28;20053;-83
2022/07/25 10:18:57;;;;;;;2.08;1.00;;;25.40;75.50;;;;;;4147588;28;20077;-83
2022/07/25 10:21:11;;;;;;;4.05;1.30;;;25.30;75.90;;;;;;4115195;28;20052;-83
2022/07/25 10:23:20;;;;;;;2.28;1.02;;;25.30;76.30;;;;;;4132545;28;20050;-84
2022/07/25 10:25:21;;;;;;;3.55;1.05;;;25.10;76.80;;;;;;4114417;28;20051;-83
2022/07/25 10:27:23;;;;;;;3.08;1.20;;;24.90;77.70;;;;;;4131187;28;20499;-83
2022/07/25 10:29:33;;;;;;;1.95;1.30;;;24.80;78.60;;;;;;4147075;28;20074;-83
2022/07/25 10:31:41;;;;;;;2.65;1.30;;;24.60;80.40;;;;;;4099424;29;20527;-83
2022/07/25 10:33:46;;;;;;;2.47;1.08;;;24.50;80.40;;;;;;4147385;28;20089;-83